sensor_id;sensor_type;location;lat;lon;timestamp;P1;durP1;ratioP1;P2;durP2;ratioP2
21166;SDS011;10741;52.272;9.580;2023-04-10T00:01:15;44.13;;;29.33;;
21166;SDS011;10741;52.272;9.580;2023-04-10T00:03:41;46.43;;;29.23;;
21166;SDS011;10741;52.272;9.580;2023-04-10T00:06:07;48.30;;;31.80;;
21166;SDS011;10741;52.272;9.580;2023-04-10T00:08:32;45.23;;;31.57;;
21166;SDS011;10741;52.272;9.580;2023-04-10T00:10:58;44.27;;;29.87;;
21166;SDS011;10741;52.272;9.580;2023-04-10T00:13:24;47.87;;;30.13;;
21166;SDS011;10741;52.272;9.580;2023-04-10T00:15:50;42.50;;;29.63;;
21166;SDS011;10741;52.272;9.580;2023-04-10T00:18:16;47.50;;;30.60;;
21166;SDS011;10741;52.272;9.580;2023-04-10T00:20:42;49.47;;;31.37;;
21166;SDS011;10741;52.272;9.580;2023-04-10T00:23:07;46.43;;;30.57;;
21166;SDS011;10741;52.272;9.580;2023-04-10T00:25:33;48.63;;;30.30;;
21166;SDS011;10741;52.272;9.580;2023-04-10T00:27:59;48.60;;;30.50;;
21166;SDS011;10741;52.272;9.580;2023-04-10T00:30:25;48.03;;;31.00;;
21166;SDS011;10741;52.272;9.580;2023-04-10T00:32:51;48.63;;;29.70;;
21166;SDS011;10741;52.272;9.580;2023-04-10T00:35:16;47.50;;;30.60;;
21166;SDS011;10741;52.272;9.580;2023-04-10T00:37:42;43.27;;;29.50;;
21166;SDS011;10741;52.272;9.580;2023-04-10T00:40:08;44.47;;;29.83;;
21166;SDS011;10741;52.272;9.580;2023-04-10T00:42:34;47.10;;;28.97;;
21166;SDS011;10741;52.272;9.580;2023-04-10T00:44:59;46.03;;;28.60;;
21166;SDS011;10741;52.272;9.580;2023-04-10T00:47:26;46.93;;;30.27;;
21166;SDS011;10741;52.272;9.580;2023-04-10T00:49:52;44.80;;;28.80;;
21166;SDS011;10741;52.272;9.580;2023-04-10T00:52:18;43.07;;;27.43;;
21166;SDS011;10741;52.272;9.580;2023-04-10T00:54:44;43.97;;;27.90;;
21166;SDS011;10741;52.272;9.580;2023-04-10T00:57:10;46.13;;;29.60;;
21166;SDS011;10741;52.272;9.580;2023-04-10T00:59:36;46.93;;;29.30;;
21166;SDS011;10741;52.272;9.580;2023-04-10T01:02:02;45.60;;;28.13;;
21166;SDS011;10741;52.272;9.580;2023-04-10T01:04:28;48.33;;;29.57;;
21166;SDS011;10741;52.272;9.580;2023-04-10T01:09:49;50.10;;;30.80;;
21166;SDS011;10741;52.272;9.580;2023-04-10T01:15:29;50.10;;;29.63;;
21166;SDS011;10741;52.272;9.580;2023-04-10T01:20:57;49.03;;;29.03;;
21166;SDS011;10741;52.272;9.580;2023-04-10T01:23:45;48.17;;;29.37;;
21166;SDS011;10741;52.272;9.580;2023-04-10T01:26:41;46.03;;;27.63;;
21166;SDS011;10741;52.272;9.580;2023-04-10T01:29:15;46.70;;;29.07;;
21166;SDS011;10741;52.272;9.580;2023-04-10T01:31:57;45.17;;;28.67;;
21166;SDS011;10741;52.272;9.580;2023-04-10T01:34:43;41.80;;;26.57;;
21166;SDS011;10741;52.272;9.580;2023-04-10T01:37:12;45.23;;;27.83;;
21166;SDS011;10741;52.272;9.580;2023-04-10T01:39:50;45.27;;;28.07;;
21166;SDS011;10741;52.272;9.580;2023-04-10T01:42:21;44.10;;;26.57;;
21166;SDS011;10741;52.272;9.580;2023-04-10T01:44:48;44.23;;;28.03;;
21166;SDS011;10741;52.272;9.580;2023-04-10T01:47:14;40.47;;;26.33;;
21166;SDS011;10741;52.272;9.580;2023-04-10T01:49:43;41.67;;;26.70;;
21166;SDS011;10741;52.272;9.580;2023-04-10T01:52:11;43.10;;;27.10;;
21166;SDS011;10741;52.272;9.580;2023-04-10T01:54:38;44.70;;;27.80;;
21166;SDS011;10741;52.272;9.580;2023-04-10T01:57:04;44.33;;;28.13;;
21166;SDS011;10741;52.272;9.580;2023-04-10T01:59:30;43.40;;;27.27;;
21166;SDS011;10741;52.272;9.580;2023-04-10T02:01:57;44.47;;;28.67;;
21166;SDS011;10741;52.272;9.580;2023-04-10T02:04:23;40.97;;;26.17;;
21166;SDS011;10741;52.272;9.580;2023-04-10T02:07:02;38.27;;;26.00;;
21166;SDS011;10741;52.272;9.580;2023-04-10T02:12:06;39.53;;;25.53;;
21166;SDS011;10741;52.272;9.580;2023-04-10T02:14:36;38.77;;;25.33;;
21166;SDS011;10741;52.272;9.580;2023-04-10T02:17:07;40.57;;;26.27;;
21166;SDS011;10741;52.272;9.580;2023-04-10T02:19:35;43.07;;;25.30;;
21166;SDS011;10741;52.272;9.580;2023-04-10T02:22:02;41.53;;;25.87;;
21166;SDS011;10741;52.272;9.580;2023-04-10T02:24:30;40.37;;;25.53;;
21166;SDS011;10741;52.272;9.580;2023-04-10T02:26:57;37.10;;;24.87;;
21166;SDS011;10741;52.272;9.580;2023-04-10T02:29:23;40.73;;;25.73;;
21166;SDS011;10741;52.272;9.580;2023-04-10T02:31:49;39.43;;;25.30;;
21166;SDS011;10741;52.272;9.580;2023-04-10T02:34:14;38.37;;;25.53;;
21166;SDS011;10741;52.272;9.580;2023-04-10T02:36:40;39.67;;;25.23;;
21166;SDS011;10741;52.272;9.580;2023-04-10T02:39:06;41.10;;;25.27;;
21166;SDS011;10741;52.272;9.580;2023-04-10T02:41:32;39.97;;;26.03;;
21166;SDS011;10741;52.272;9.580;2023-04-10T02:43:58;43.23;;;26.93;;
21166;SDS011;10741;52.272;9.580;2023-04-10T02:46:24;41.87;;;25.70;;
21166;SDS011;10741;52.272;9.580;2023-04-10T02:48:52;46.67;;;27.23;;
21166;SDS011;10741;52.272;9.580;2023-04-10T02:51:19;40.73;;;25.80;;
21166;SDS011;10741;52.272;9.580;2023-04-10T02:53:45;42.00;;;26.20;;
21166;SDS011;10741;52.272;9.580;2023-04-10T02:56:11;42.33;;;27.70;;
21166;SDS011;10741;52.272;9.580;2023-04-10T02:58:38;40.80;;;26.23;;
21166;SDS011;10741;52.272;9.580;2023-04-10T03:01:04;39.43;;;25.33;;
21166;SDS011;10741;52.272;9.580;2023-04-10T03:03:33;44.33;;;26.07;;
21166;SDS011;10741;52.272;9.580;2023-04-10T03:05:59;42.07;;;26.00;;
21166;SDS011;10741;52.272;9.580;2023-04-10T03:08:25;40.73;;;25.97;;
21166;SDS011;10741;52.272;9.580;2023-04-10T03:10:51;43.60;;;26.37;;
21166;SDS011;10741;52.272;9.580;2023-04-10T03:13:16;41.30;;;25.53;;
21166;SDS011;10741;52.272;9.580;2023-04-10T03:15:42;45.40;;;26.50;;
21166;SDS011;10741;52.272;9.580;2023-04-10T03:18:08;39.33;;;26.00;;
21166;SDS011;10741;52.272;9.580;2023-04-10T03:20:37;41.03;;;25.70;;
21166;SDS011;10741;52.272;9.580;2023-04-10T03:23:03;41.13;;;25.60;;
21166;SDS011;10741;52.272;9.580;2023-04-10T03:25:30;39.63;;;25.63;;
21166;SDS011;10741;52.272;9.580;2023-04-10T03:27:58;37.73;;;24.90;;
21166;SDS011;10741;52.272;9.580;2023-04-10T03:30:23;35.40;;;23.37;;
21166;SDS011;10741;52.272;9.580;2023-04-10T03:32:49;39.70;;;24.07;;
21166;SDS011;10741;52.272;9.580;2023-04-10T03:35:15;36.47;;;24.40;;
21166;SDS011;10741;52.272;9.580;2023-04-10T03:37:41;37.37;;;23.83;;
21166;SDS011;10741;52.272;9.580;2023-04-10T03:40:07;37.87;;;25.40;;
21166;SDS011;10741;52.272;9.580;2023-04-10T03:42:34;38.37;;;23.73;;
21166;SDS011;10741;52.272;9.580;2023-04-10T03:45:00;42.20;;;25.60;;
21166;SDS011;10741;52.272;9.580;2023-04-10T03:47:28;35.73;;;23.93;;
21166;SDS011;10741;52.272;9.580;2023-04-10T03:49:55;38.73;;;23.97;;
21166;SDS011;10741;52.272;9.580;2023-04-10T03:52:21;35.70;;;23.53;;
21166;SDS011;10741;52.272;9.580;2023-04-10T03:54:47;41.13;;;25.17;;
21166;SDS011;10741;52.272;9.580;2023-04-10T03:57:13;39.80;;;24.67;;
21166;SDS011;10741;52.272;9.580;2023-04-10T03:59:38;38.90;;;23.63;;
21166;SDS011;10741;52.272;9.580;2023-04-10T04:02:05;36.40;;;23.37;;
21166;SDS011;10741;52.272;9.580;2023-04-10T04:04:31;36.77;;;22.30;;
21166;SDS011;10741;52.272;9.580;2023-04-10T04:06:57;35.10;;;22.43;;
21166;SDS011;10741;52.272;9.580;2023-04-10T04:09:23;37.10;;;23.30;;
21166;SDS011;10741;52.272;9.580;2023-04-10T04:11:48;38.77;;;23.43;;
21166;SDS011;10741;52.272;9.580;2023-04-10T04:14:14;37.90;;;22.93;;
21166;SDS011;10741;52.272;9.580;2023-04-10T04:16:40;35.67;;;22.77;;
21166;SDS011;10741;52.272;9.580;2023-04-10T04:19:06;33.80;;;21.57;;
21166;SDS011;10741;52.272;9.580;2023-04-10T04:21:31;35.30;;;21.87;;
21166;SDS011;10741;52.272;9.580;2023-04-10T04:23:57;34.53;;;22.50;;
21166;SDS011;10741;52.272;9.580;2023-04-10T04:26:23;32.87;;;21.30;;
21166;SDS011;10741;52.272;9.580;2023-04-10T04:28:50;34.23;;;21.97;;
21166;SDS011;10741;52.272;9.580;2023-04-10T04:31:16;34.17;;;21.07;;
21166;SDS011;10741;52.272;9.580;2023-04-10T04:33:41;37.30;;;22.47;;
21166;SDS011;10741;52.272;9.580;2023-04-10T04:36:07;33.23;;;21.23;;
21166;SDS011;10741;52.272;9.580;2023-04-10T04:38:33;33.80;;;22.53;;
21166;SDS011;10741;52.272;9.580;2023-04-10T04:40:58;35.03;;;21.30;;
21166;SDS011;10741;52.272;9.580;2023-04-10T04:43:24;31.50;;;20.50;;
21166;SDS011;10741;52.272;9.580;2023-04-10T04:45:50;31.00;;;20.63;;
21166;SDS011;10741;52.272;9.580;2023-04-10T04:48:16;30.37;;;19.93;;
21166;SDS011;10741;52.272;9.580;2023-04-10T04:50:41;36.43;;;23.50;;
21166;SDS011;10741;52.272;9.580;2023-04-10T04:53:07;35.13;;;24.53;;
21166;SDS011;10741;52.272;9.580;2023-04-10T04:55:33;36.00;;;24.33;;
21166;SDS011;10741;52.272;9.580;2023-04-10T04:57:59;34.77;;;22.93;;
21166;SDS011;10741;52.272;9.580;2023-04-10T05:00:25;32.90;;;22.73;;
21166;SDS011;10741;52.272;9.580;2023-04-10T05:02:51;33.47;;;21.73;;
21166;SDS011;10741;52.272;9.580;2023-04-10T05:05:16;33.10;;;21.77;;
21166;SDS011;10741;52.272;9.580;2023-04-10T05:07:42;32.63;;;20.47;;
21166;SDS011;10741;52.272;9.580;2023-04-10T05:10:08;33.73;;;22.10;;
21166;SDS011;10741;52.272;9.580;2023-04-10T05:12:34;32.43;;;21.47;;
21166;SDS011;10741;52.272;9.580;2023-04-10T05:15:00;32.43;;;21.67;;
21166;SDS011;10741;52.272;9.580;2023-04-10T05:17:26;35.30;;;22.00;;
21166;SDS011;10741;52.272;9.580;2023-04-10T05:19:51;35.00;;;22.67;;
21166;SDS011;10741;52.272;9.580;2023-04-10T05:22:17;35.37;;;22.93;;
21166;SDS011;10741;52.272;9.580;2023-04-10T05:24:43;34.47;;;22.50;;
21166;SDS011;10741;52.272;9.580;2023-04-10T05:27:08;35.37;;;22.27;;
21166;SDS011;10741;52.272;9.580;2023-04-10T05:29:34;35.40;;;23.03;;
21166;SDS011;10741;52.272;9.580;2023-04-10T05:32:00;33.70;;;21.83;;
21166;SDS011;10741;52.272;9.580;2023-04-10T05:34:26;30.60;;;21.00;;
21166;SDS011;10741;52.272;9.580;2023-04-10T05:36:51;34.00;;;22.67;;
21166;SDS011;10741;52.272;9.580;2023-04-10T05:39:17;33.17;;;22.60;;
21166;SDS011;10741;52.272;9.580;2023-04-10T05:41:43;35.13;;;22.07;;
21166;SDS011;10741;52.272;9.580;2023-04-10T05:44:08;32.67;;;22.10;;
21166;SDS011;10741;52.272;9.580;2023-04-10T05:46:34;32.33;;;22.37;;
21166;SDS011;10741;52.272;9.580;2023-04-10T05:49:00;28.80;;;20.37;;
21166;SDS011;10741;52.272;9.580;2023-04-10T05:51:26;30.87;;;21.50;;
21166;SDS011;10741;52.272;9.580;2023-04-10T05:53:52;28.77;;;20.53;;
21166;SDS011;10741;52.272;9.580;2023-04-10T05:56:18;30.13;;;21.33;;
21166;SDS011;10741;52.272;9.580;2023-04-10T05:58:45;29.63;;;21.23;;
21166;SDS011;10741;52.272;9.580;2023-04-10T06:01:10;30.27;;;21.73;;
21166;SDS011;10741;52.272;9.580;2023-04-10T06:03:37;32.53;;;22.93;;
21166;SDS011;10741;52.272;9.580;2023-04-10T06:06:03;30.10;;;21.27;;
21166;SDS011;10741;52.272;9.580;2023-04-10T06:08:30;31.33;;;21.67;;
21166;SDS011;10741;52.272;9.580;2023-04-10T06:10:56;29.57;;;21.63;;
21166;SDS011;10741;52.272;9.580;2023-04-10T06:13:22;30.87;;;21.27;;
21166;SDS011;10741;52.272;9.580;2023-04-10T06:15:48;28.80;;;20.30;;
21166;SDS011;10741;52.272;9.580;2023-04-10T06:18:14;27.50;;;20.33;;
21166;SDS011;10741;52.272;9.580;2023-04-10T06:20:40;26.07;;;19.93;;
21166;SDS011;10741;52.272;9.580;2023-04-10T06:23:06;27.07;;;21.50;;
21166;SDS011;10741;52.272;9.580;2023-04-10T06:25:31;27.17;;;20.53;;
21166;SDS011;10741;52.272;9.580;2023-04-10T06:27:57;28.23;;;20.57;;
21166;SDS011;10741;52.272;9.580;2023-04-10T06:30:23;26.90;;;19.60;;
21166;SDS011;10741;52.272;9.580;2023-04-10T06:32:49;24.40;;;19.20;;
21166;SDS011;10741;52.272;9.580;2023-04-10T06:35:15;27.23;;;20.17;;
21166;SDS011;10741;52.272;9.580;2023-04-10T06:37:41;28.43;;;20.03;;
21166;SDS011;10741;52.272;9.580;2023-04-10T06:40:08;23.97;;;18.53;;
21166;SDS011;10741;52.272;9.580;2023-04-10T06:42:36;25.70;;;19.57;;
21166;SDS011;10741;52.272;9.580;2023-04-10T06:45:02;24.90;;;18.73;;
21166;SDS011;10741;52.272;9.580;2023-04-10T06:47:29;25.33;;;18.63;;
21166;SDS011;10741;52.272;9.580;2023-04-10T06:49:56;24.10;;;19.10;;
21166;SDS011;10741;52.272;9.580;2023-04-10T06:52:21;25.20;;;19.13;;
21166;SDS011;10741;52.272;9.580;2023-04-10T06:54:47;24.70;;;18.77;;
21166;SDS011;10741;52.272;9.580;2023-04-10T06:57:13;24.20;;;18.47;;
21166;SDS011;10741;52.272;9.580;2023-04-10T06:59:40;24.63;;;18.80;;
21166;SDS011;10741;52.272;9.580;2023-04-10T07:02:06;25.13;;;18.50;;
21166;SDS011;10741;52.272;9.580;2023-04-10T07:04:32;22.67;;;17.93;;
21166;SDS011;10741;52.272;9.580;2023-04-10T07:06:57;24.70;;;18.67;;
21166;SDS011;10741;52.272;9.580;2023-04-10T07:09:24;23.27;;;18.10;;
21166;SDS011;10741;52.272;9.580;2023-04-10T07:11:51;22.97;;;18.10;;
21166;SDS011;10741;52.272;9.580;2023-04-10T07:14:17;21.53;;;17.33;;
21166;SDS011;10741;52.272;9.580;2023-04-10T07:16:43;21.50;;;17.13;;
21166;SDS011;10741;52.272;9.580;2023-04-10T07:19:08;21.80;;;18.03;;
21166;SDS011;10741;52.272;9.580;2023-04-10T07:21:35;21.77;;;17.03;;
21166;SDS011;10741;52.272;9.580;2023-04-10T07:24:01;20.40;;;16.83;;
21166;SDS011;10741;52.272;9.580;2023-04-10T07:26:27;21.87;;;17.57;;
21166;SDS011;10741;52.272;9.580;2023-04-10T07:28:52;21.00;;;17.43;;
21166;SDS011;10741;52.272;9.580;2023-04-10T07:31:18;20.70;;;17.43;;
21166;SDS011;10741;52.272;9.580;2023-04-10T07:33:44;22.17;;;17.20;;
21166;SDS011;10741;52.272;9.580;2023-04-10T07:36:11;22.37;;;17.27;;
21166;SDS011;10741;52.272;9.580;2023-04-10T07:38:37;20.47;;;16.70;;
21166;SDS011;10741;52.272;9.580;2023-04-10T07:41:03;23.23;;;17.83;;
21166;SDS011;10741;52.272;9.580;2023-04-10T07:43:29;20.47;;;17.23;;
21166;SDS011;10741;52.272;9.580;2023-04-10T07:45:55;20.27;;;16.23;;
21166;SDS011;10741;52.272;9.580;2023-04-10T07:48:21;20.20;;;16.20;;
21166;SDS011;10741;52.272;9.580;2023-04-10T07:50:47;18.03;;;15.23;;
21166;SDS011;10741;52.272;9.580;2023-04-10T07:53:13;17.80;;;15.40;;
21166;SDS011;10741;52.272;9.580;2023-04-10T07:55:43;16.80;;;14.87;;
21166;SDS011;10741;52.272;9.580;2023-04-10T07:58:12;15.93;;;14.23;;
21166;SDS011;10741;52.272;9.580;2023-04-10T08:00:38;17.43;;;14.50;;
21166;SDS011;10741;52.272;9.580;2023-04-10T08:03:04;18.07;;;15.03;;
21166;SDS011;10741;52.272;9.580;2023-04-10T08:05:31;16.67;;;14.47;;
21166;SDS011;10741;52.272;9.580;2023-04-10T08:07:57;17.87;;;14.57;;
21166;SDS011;10741;52.272;9.580;2023-04-10T08:10:23;15.90;;;13.50;;
21166;SDS011;10741;52.272;9.580;2023-04-10T08:12:49;17.97;;;14.43;;
21166;SDS011;10741;52.272;9.580;2023-04-10T08:15:16;16.77;;;14.87;;
21166;SDS011;10741;52.272;9.580;2023-04-10T08:17:42;16.83;;;15.03;;
21166;SDS011;10741;52.272;9.580;2023-04-10T08:20:08;16.97;;;15.17;;
21166;SDS011;10741;52.272;9.580;2023-04-10T08:22:35;16.33;;;14.63;;
21166;SDS011;10741;52.272;9.580;2023-04-10T08:25:01;17.07;;;15.23;;
21166;SDS011;10741;52.272;9.580;2023-04-10T08:27:27;17.63;;;15.83;;
21166;SDS011;10741;52.272;9.580;2023-04-10T08:29:54;16.10;;;14.50;;
21166;SDS011;10741;52.272;9.580;2023-04-10T08:32:20;17.43;;;15.63;;
21166;SDS011;10741;52.272;9.580;2023-04-10T08:34:46;18.03;;;15.57;;
21166;SDS011;10741;52.272;9.580;2023-04-10T08:37:13;19.40;;;16.00;;
21166;SDS011;10741;52.272;9.580;2023-04-10T08:39:39;17.90;;;16.00;;
21166;SDS011;10741;52.272;9.580;2023-04-10T08:42:05;17.63;;;15.83;;
21166;SDS011;10741;52.272;9.580;2023-04-10T08:44:31;18.70;;;16.80;;
21166;SDS011;10741;52.272;9.580;2023-04-10T08:46:58;18.57;;;16.73;;
21166;SDS011;10741;52.272;9.580;2023-04-10T08:49:36;17.20;;;15.50;;
21166;SDS011;10741;52.272;9.580;2023-04-10T08:52:13;18.40;;;16.60;;
21166;SDS011;10741;52.272;9.580;2023-04-10T08:54:42;18.60;;;16.80;;
21166;SDS011;10741;52.272;9.580;2023-04-10T08:57:12;17.20;;;15.50;;
21166;SDS011;10741;52.272;9.580;2023-04-10T08:59:45;17.00;;;15.27;;
21166;SDS011;10741;52.272;9.580;2023-04-10T09:02:11;14.33;;;12.90;;
21166;SDS011;10741;52.272;9.580;2023-04-10T09:04:37;14.83;;;13.33;;
21166;SDS011;10741;52.272;9.580;2023-04-10T09:07:03;15.33;;;13.43;;
21166;SDS011;10741;52.272;9.580;2023-04-10T09:09:29;13.57;;;12.37;;
21166;SDS011;10741;52.272;9.580;2023-04-10T09:12:00;15.50;;;14.00;;
21166;SDS011;10741;52.272;9.580;2023-04-10T09:14:31;17.07;;;15.47;;
21166;SDS011;10741;52.272;9.580;2023-04-10T09:17:18;13.70;;;12.30;;
21166;SDS011;10741;52.272;9.580;2023-04-10T09:19:46;12.93;;;11.73;;
21166;SDS011;10741;52.272;9.580;2023-04-10T09:22:13;15.43;;;13.93;;
21166;SDS011;10741;52.272;9.580;2023-04-10T09:24:44;13.50;;;12.20;;
21166;SDS011;10741;52.272;9.580;2023-04-10T09:27:26;13.97;;;12.67;;
21166;SDS011;10741;52.272;9.580;2023-04-10T09:30:01;13.93;;;12.53;;
21166;SDS011;10741;52.272;9.580;2023-04-10T09:35:01;12.73;;;11.53;;
21166;SDS011;10741;52.272;9.580;2023-04-10T09:37:32;13.50;;;12.20;;
21166;SDS011;10741;52.272;9.580;2023-04-10T09:39:59;12.90;;;11.70;;
21166;SDS011;10741;52.272;9.580;2023-04-10T09:42:35;12.90;;;11.70;;
21166;SDS011;10741;52.272;9.580;2023-04-10T09:45:02;12.93;;;11.53;;
21166;SDS011;10741;52.272;9.580;2023-04-10T09:47:28;13.10;;;11.90;;
21166;SDS011;10741;52.272;9.580;2023-04-10T09:49:58;12.93;;;11.63;;
21166;SDS011;10741;52.272;9.580;2023-04-10T09:52:25;12.40;;;11.27;;
21166;SDS011;10741;52.272;9.580;2023-04-10T09:54:53;13.20;;;12.00;;
21166;SDS011;10741;52.272;9.580;2023-04-10T09:57:22;13.87;;;12.57;;
21166;SDS011;10741;52.272;9.580;2023-04-10T09:59:52;15.60;;;14.03;;
21166;SDS011;10741;52.272;9.580;2023-04-10T10:02:23;14.57;;;13.20;;
21166;SDS011;10741;52.272;9.580;2023-04-10T10:04:52;15.10;;;13.67;;
21166;SDS011;10741;52.272;9.580;2023-04-10T10:07:19;14.37;;;12.87;;
21166;SDS011;10741;52.272;9.580;2023-04-10T10:09:47;15.23;;;13.57;;
21166;SDS011;10741;52.272;9.580;2023-04-10T10:12:20;14.53;;;13.03;;
21166;SDS011;10741;52.272;9.580;2023-04-10T10:17:17;14.50;;;13.10;;
21166;SDS011;10741;52.272;9.580;2023-04-10T10:19:52;13.27;;;12.00;;
21166;SDS011;10741;52.272;9.580;2023-04-10T10:22:24;13.80;;;12.50;;
21166;SDS011;10741;52.272;9.580;2023-04-10T10:24:52;12.97;;;11.63;;
21166;SDS011;10741;52.272;9.580;2023-04-10T10:27:21;13.53;;;12.23;;
21166;SDS011;10741;52.272;9.580;2023-04-10T10:29:48;13.83;;;12.53;;
21166;SDS011;10741;52.272;9.580;2023-04-10T10:32:17;13.73;;;12.43;;
21166;SDS011;10741;52.272;9.580;2023-04-10T10:34:44;13.23;;;11.93;;
21166;SDS011;10741;52.272;9.580;2023-04-10T10:37:10;13.73;;;12.33;;
21166;SDS011;10741;52.272;9.580;2023-04-10T10:39:59;13.10;;;11.73;;
21166;SDS011;10741;52.272;9.580;2023-04-10T10:45:22;12.90;;;11.60;;
21166;SDS011;10741;52.272;9.580;2023-04-10T10:47:54;14.27;;;12.07;;
21166;SDS011;10741;52.272;9.580;2023-04-10T10:50:20;13.73;;;12.37;;
21166;SDS011;10741;52.272;9.580;2023-04-10T10:52:51;13.63;;;12.20;;
21166;SDS011;10741;52.272;9.580;2023-04-10T10:57:59;12.50;;;11.30;;
21166;SDS011;10741;52.272;9.580;2023-04-10T11:11:02;12.90;;;11.53;;
21166;SDS011;10741;52.272;9.580;2023-04-10T11:13:35;13.00;;;11.27;;
21166;SDS011;10741;52.272;9.580;2023-04-10T11:16:03;12.13;;;10.83;;
21166;SDS011;10741;52.272;9.580;2023-04-10T11:21:15;11.40;;;10.20;;
21166;SDS011;10741;52.272;9.580;2023-04-10T11:26:49;9.63;;;8.47;;
21166;SDS011;10741;52.272;9.580;2023-04-10T11:31:44;9.70;;;8.70;;
21166;SDS011;10741;52.272;9.580;2023-04-10T11:34:11;9.90;;;9.00;;
21166;SDS011;10741;52.272;9.580;2023-04-10T11:36:37;10.30;;;9.30;;
21166;SDS011;10741;52.272;9.580;2023-04-10T11:39:08;10.07;;;9.03;;
21166;SDS011;10741;52.272;9.580;2023-04-10T11:47:00;11.73;;;8.03;;
21166;SDS011;10741;52.272;9.580;2023-04-10T11:49:28;8.60;;;7.90;;
21166;SDS011;10741;52.272;9.580;2023-04-10T11:51:55;8.10;;;7.40;;
21166;SDS011;10741;52.272;9.580;2023-04-10T11:54:22;8.80;;;8.00;;
21166;SDS011;10741;52.272;9.580;2023-04-10T11:57:00;7.60;;;6.90;;
21166;SDS011;10741;52.272;9.580;2023-04-10T11:59:28;8.30;;;7.43;;
21166;SDS011;10741;52.272;9.580;2023-04-10T12:04:35;8.03;;;7.33;;
21166;SDS011;10741;52.272;9.580;2023-04-10T12:07:01;7.43;;;6.80;;
21166;SDS011;10741;52.272;9.580;2023-04-10T12:09:27;9.07;;;7.07;;
21166;SDS011;10741;52.272;9.580;2023-04-10T12:11:54;8.57;;;7.73;;
21166;SDS011;10741;52.272;9.580;2023-04-10T12:14:27;7.60;;;6.90;;
21166;SDS011;10741;52.272;9.580;2023-04-10T12:16:56;7.80;;;7.10;;
21166;SDS011;10741;52.272;9.580;2023-04-10T12:19:22;7.20;;;6.50;;
21166;SDS011;10741;52.272;9.580;2023-04-10T12:21:48;8.73;;;7.83;;
21166;SDS011;10741;52.272;9.580;2023-04-10T12:24:39;8.57;;;7.87;;
21166;SDS011;10741;52.272;9.580;2023-04-10T12:27:19;8.90;;;8.10;;
21166;SDS011;10741;52.272;9.580;2023-04-10T12:29:55;9.37;;;8.47;;
21166;SDS011;10741;52.272;9.580;2023-04-10T12:32:23;8.73;;;7.93;;
21166;SDS011;10741;52.272;9.580;2023-04-10T12:34:50;7.83;;;7.00;;
21166;SDS011;10741;52.272;9.580;2023-04-10T12:37:16;9.57;;;7.00;;
21166;SDS011;10741;52.272;9.580;2023-04-10T12:39:41;9.10;;;8.20;;
21166;SDS011;10741;52.272;9.580;2023-04-10T12:44:58;8.77;;;7.83;;
21166;SDS011;10741;52.272;9.580;2023-04-10T12:47:24;8.63;;;7.83;;
21166;SDS011;10741;52.272;9.580;2023-04-10T12:53:05;8.70;;;7.90;;
21166;SDS011;10741;52.272;9.580;2023-04-10T12:55:32;8.07;;;7.27;;
21166;SDS011;10741;52.272;9.580;2023-04-10T12:58:03;8.00;;;7.30;;
21166;SDS011;10741;52.272;9.580;2023-04-10T13:00:44;8.93;;;7.97;;
21166;SDS011;10741;52.272;9.580;2023-04-10T13:03:10;7.93;;;7.20;;
21166;SDS011;10741;52.272;9.580;2023-04-10T13:05:36;8.27;;;7.47;;
21166;SDS011;10741;52.272;9.580;2023-04-10T13:08:02;8.23;;;7.43;;
21166;SDS011;10741;52.272;9.580;2023-04-10T13:10:28;8.20;;;7.40;;
21166;SDS011;10741;52.272;9.580;2023-04-10T13:12:54;8.00;;;7.30;;
21166;SDS011;10741;52.272;9.580;2023-04-10T13:15:20;8.20;;;7.40;;
21166;SDS011;10741;52.272;9.580;2023-04-10T13:17:45;8.20;;;7.40;;
21166;SDS011;10741;52.272;9.580;2023-04-10T13:20:11;8.97;;;8.07;;
21166;SDS011;10741;52.272;9.580;2023-04-10T13:22:37;8.33;;;7.37;;
21166;SDS011;10741;52.272;9.580;2023-04-10T13:25:03;7.57;;;6.87;;
21166;SDS011;10741;52.272;9.580;2023-04-10T13:27:29;8.63;;;7.73;;
21166;SDS011;10741;52.272;9.580;2023-04-10T13:29:55;8.50;;;7.70;;
21166;SDS011;10741;52.272;9.580;2023-04-10T13:32:21;7.90;;;7.10;;
21166;SDS011;10741;52.272;9.580;2023-04-10T13:34:47;7.90;;;7.10;;
21166;SDS011;10741;52.272;9.580;2023-04-10T13:37:12;7.93;;;7.13;;
21166;SDS011;10741;52.272;9.580;2023-04-10T13:39:38;7.93;;;7.23;;
21166;SDS011;10741;52.272;9.580;2023-04-10T13:42:04;8.10;;;7.30;;
21166;SDS011;10741;52.272;9.580;2023-04-10T13:44:30;7.53;;;6.83;;
21166;SDS011;10741;52.272;9.580;2023-04-10T13:46:56;6.97;;;6.33;;
21166;SDS011;10741;52.272;9.580;2023-04-10T13:49:22;7.30;;;6.60;;
21166;SDS011;10741;52.272;9.580;2023-04-10T13:51:48;7.23;;;6.53;;
21166;SDS011;10741;52.272;9.580;2023-04-10T13:54:14;7.33;;;6.73;;
21166;SDS011;10741;52.272;9.580;2023-04-10T13:56:44;6.87;;;6.27;;
21166;SDS011;10741;52.272;9.580;2023-04-10T13:59:10;7.57;;;6.87;;
21166;SDS011;10741;52.272;9.580;2023-04-10T14:01:36;7.77;;;7.07;;
21166;SDS011;10741;52.272;9.580;2023-04-10T14:04:02;7.07;;;6.47;;
21166;SDS011;10741;52.272;9.580;2023-04-10T14:06:27;7.97;;;7.20;;
21166;SDS011;10741;52.272;9.580;2023-04-10T14:08:53;7.47;;;6.67;;
21166;SDS011;10741;52.272;9.580;2023-04-10T14:11:19;6.90;;;6.30;;
21166;SDS011;10741;52.272;9.580;2023-04-10T14:13:45;7.40;;;6.80;;
21166;SDS011;10741;52.272;9.580;2023-04-10T14:16:11;8.00;;;7.10;;
21166;SDS011;10741;52.272;9.580;2023-04-10T14:18:37;8.80;;;7.10;;
21166;SDS011;10741;52.272;9.580;2023-04-10T14:21:02;7.90;;;7.30;;
21166;SDS011;10741;52.272;9.580;2023-04-10T14:23:28;8.00;;;7.20;;
21166;SDS011;10741;52.272;9.580;2023-04-10T14:25:54;7.47;;;6.77;;
21166;SDS011;10741;52.272;9.580;2023-04-10T14:28:20;7.63;;;6.67;;
21166;SDS011;10741;52.272;9.580;2023-04-10T14:30:46;7.40;;;6.73;;
21166;SDS011;10741;52.272;9.580;2023-04-10T14:33:14;7.50;;;6.80;;
21166;SDS011;10741;52.272;9.580;2023-04-10T14:35:40;7.03;;;6.40;;
21166;SDS011;10741;52.272;9.580;2023-04-10T14:38:07;7.30;;;6.70;;
21166;SDS011;10741;52.272;9.580;2023-04-10T14:40:33;7.63;;;7.03;;
21166;SDS011;10741;52.272;9.580;2023-04-10T14:42:59;7.07;;;6.47;;
21166;SDS011;10741;52.272;9.580;2023-04-10T14:45:24;7.40;;;6.80;;
21166;SDS011;10741;52.272;9.580;2023-04-10T14:47:52;6.90;;;6.30;;
21166;SDS011;10741;52.272;9.580;2023-04-10T14:50:18;6.57;;;5.97;;
21166;SDS011;10741;52.272;9.580;2023-04-10T14:52:44;6.23;;;5.63;;
21166;SDS011;10741;52.272;9.580;2023-04-10T14:55:10;6.20;;;5.60;;
21166;SDS011;10741;52.272;9.580;2023-04-10T14:57:36;6.10;;;5.03;;
21166;SDS011;10741;52.272;9.580;2023-04-10T15:00:02;6.50;;;5.17;;
21166;SDS011;10741;52.272;9.580;2023-04-10T15:02:28;6.00;;;5.20;;
21166;SDS011;10741;52.272;9.580;2023-04-10T15:04:55;5.60;;;5.10;;
21166;SDS011;10741;52.272;9.580;2023-04-10T15:07:21;5.07;;;4.57;;
21166;SDS011;10741;52.272;9.580;2023-04-10T15:09:48;6.20;;;4.83;;
21166;SDS011;10741;52.272;9.580;2023-04-10T15:12:14;5.53;;;4.93;;
21166;SDS011;10741;52.272;9.580;2023-04-10T15:14:40;5.40;;;4.90;;
21166;SDS011;10741;52.272;9.580;2023-04-10T15:17:05;5.70;;;5.20;;
21166;SDS011;10741;52.272;9.580;2023-04-10T15:19:32;5.53;;;4.97;;
21166;SDS011;10741;52.272;9.580;2023-04-10T15:21:58;5.63;;;5.13;;
21166;SDS011;10741;52.272;9.580;2023-04-10T15:24:23;4.70;;;4.30;;